Time;durP1;ratioP1;P1;durP2;ratioP2;P2;SDS_P1;SDS_P2;PMS_P1;PMS_P2;Temp;Humidity;BMP_temperature;BMP_pressure;BME280_temperature;BME280_humidity;BME280_pressure;Samples;Min_cycle;Max_cycle;Signal;HPM_P1;HPM_P2
2023/03/21 00:01:19;;;;;;;20.00;1.40;;;;;;;21.08;59.63;99485.22;7313929;19;130071;-42
2023/03/21 00:03:46;;;;;;;41.50;2.72;;;;;;;21.19;60.27;99502.56;7310717;19;129197;-42
2023/03/21 00:06:12;;;;;;;43.00;2.63;;;;;;;21.15;59.93;99507.25;7311355;19;129578;-42
2023/03/21 00:08:39;;;;;;;54.37;3.17;;;;;;;21.14;59.52;99510.81;7313079;19;128823;-42
2023/03/21 00:11:07;;;;;;;29.00;1.90;;;;;;;21.13;59.61;99518.78;7314295;19;129107;-42
2023/03/21 00:13:37;;;;;;;42.55;2.67;;;;;;;21.09;59.34;99514.81;7313393;19;129413;-41
2023/03/21 00:16:14;;;;;;;51.88;3.15;;;;;;;21.10;60.26;99509.44;7311535;19;129267;-41
2023/03/21 00:18:41;;;;;;;39.42;2.42;;;;;;;21.08;59.81;99516.59;7314210;19;129041;-41
2023/03/21 00:21:08;;;;;;;27.95;1.83;;;;;;;21.08;59.24;99511.38;7314261;19;129177;-42
2023/03/21 00:23:35;;;;;;;35.35;2.13;;;;;;;21.10;58.94;99516.44;7309866;19;130048;-42
2023/03/21 00:26:00;;;;;;;29.83;2.03;;;;;;;21.10;60.36;99514.66;7311264;19;129363;-42
2023/03/21 00:28:26;;;;;;;55.05;3.08;;;;;;;21.11;59.59;99511.09;7313738;19;129556;-42
2023/03/21 00:30:59;;;;;;;38.17;2.63;;;;;;;21.14;62.04;99504.78;7313025;19;129253;-42
2023/03/21 00:33:25;;;;;;;35.42;2.10;;;;;;;21.17;61.77;99509.72;7313592;19;129135;-40
2023/03/21 00:35:51;;;;;;;23.50;1.85;;;;;;;21.18;59.64;99513.97;7311181;19;129427;-40
2023/03/21 00:38:18;;;;;;;44.57;2.90;;;;;;;21.17;61.55;99504.47;7312021;19;129696;-41
2023/03/21 00:40:43;;;;;;;31.38;2.15;;;;;;;21.15;59.42;99512.47;7313641;19;128845;-41
2023/03/21 00:43:10;;;;;;;32.58;2.20;;;;;;;21.18;61.39;99511.34;7311552;19;129097;-41
2023/03/21 00:45:36;;;;;;;43.88;2.78;;;;;;;21.17;60.88;99502.69;7309983;19;129801;-47
2023/03/21 00:48:02;;;;;;;55.92;3.33;;;;;;;21.21;60.83;99491.00;7313482;19;128736;-42
2023/03/21 00:50:28;;;;;;;30.93;2.13;;;;;;;21.18;61.00;99496.50;7312323;19;129141;-41
2023/03/21 00:52:53;;;;;;;36.90;2.55;;;;;;;21.20;60.06;99494.56;7311054;19;129087;-41
2023/03/21 00:55:19;;;;;;;45.83;2.78;;;;;;;21.21;60.40;99492.78;7311286;19;129340;-41
2023/03/21 00:57:45;;;;;;;56.30;3.25;;;;;;;21.26;61.62;99501.00;7313170;19;129256;-42
2023/03/21 01:00:13;;;;;;;25.13;1.67;;;;;;;21.27;61.57;99495.66;7312875;19;129419;-42
2023/03/21 01:02:55;;;;;;;38.83;2.78;;;;;;;21.24;61.68;99495.94;7311443;19;129535;-41
2023/03/21 01:08:19;;;;;;;34.33;2.17;;;;;;;21.26;61.20;99499.25;7310844;19;128916;-41
2023/03/21 01:10:47;;;;;;;34.20;2.22;;;;;;;21.26;60.71;99504.47;7311655;19;129010;-41
2023/03/21 01:13:14;;;;;;;31.92;2.22;;;;;;;21.28;61.07;99499.94;7311931;19;129318;-42
2023/03/21 01:15:47;;;;;;;28.33;1.98;;;;;;;21.27;61.54;99490.41;7310805;19;129260;-40
2023/03/21 01:18:15;;;;;;;30.80;2.20;;;;;;;21.29;61.59;99496.34;7312499;19;129375;-40
2023/03/21 01:20:41;;;;;;;50.55;3.10;;;;;;;21.27;61.10;99490.41;7311222;19;129449;-41
2023/03/21 01:23:08;;;;;;;53.08;3.28;;;;;;;21.30;61.57;99500.63;7308878;19;129789;-41
2023/03/21 01:25:33;;;;;;;37.97;2.45;;;;;;;21.19;61.01;99486.88;7310260;19;129661;-42
2023/03/21 01:27:59;;;;;;;33.22;2.40;;;;;;;21.28;61.67;99493.88;7310647;19;129019;-42
2023/03/21 01:30:24;;;;;;;7.23;1.20;;;;;;;21.28;60.53;99497.31;7311108;19;129510;-41
2023/03/21 01:32:51;;;;;;;58.17;3.10;;;;;;;21.27;60.70;99493.03;7311000;19;129336;-41
2023/03/21 01:35:17;;;;;;;;;;;;;;;21.32;61.59;99490.81;7309968;19;129822;-42
2023/03/21 01:37:42;;;;;;;32.60;2.20;;;;;;;21.30;60.74;99494.56;7311150;19;129468;-40
2023/03/21 01:40:11;;;;;;;29.88;2.20;;;;;;;21.28;61.02;99492.09;7310754;19;128890;-41
2023/03/21 01:42:37;;;;;;;52.72;3.15;;;;;;;21.29;61.19;99498.13;7309723;19;129347;-41
2023/03/21 01:45:06;;;;;;;33.28;2.35;;;;;;;21.28;61.47;99501.72;7310831;19;129192;-42
2023/03/21 01:47:31;;;;;;;34.00;2.30;;;;;;;21.31;61.62;99494.41;7309029;19;129683;-40
2023/03/21 01:50:02;;;;;;;37.38;2.53;;;;;;;21.21;61.70;99483.16;7311025;19;129531;-41
2023/03/21 01:52:36;;;;;;;47.60;2.88;;;;;;;21.32;61.17;99501.28;7310165;19;129127;-40
2023/03/21 01:55:05;;;;;;;52.15;3.17;;;;;;;21.32;60.66;99492.63;7310023;19;129618;-40
2023/03/21 01:57:38;;;;;;;38.75;2.50;;;;;;;21.32;61.77;99488.22;7308235;19;129066;-41
2023/03/21 02:00:11;;;;;;;37.03;2.28;;;;;;;21.33;61.66;99489.88;7310810;19;130084;-41
2023/03/21 02:02:49;;;;;;;15.68;1.30;;;;;;;21.35;61.44;99487.94;7312384;19;129000;-41
2023/03/21 02:05:19;;;;;;;25.92;1.88;;;;;;;21.26;61.33;99467.88;7314846;19;129735;-41
2023/03/21 02:07:45;;;;;;;54.95;3.13;;;;;;;21.35;61.04;99477.50;7316873;19;129579;-41
2023/03/21 02:10:13;;;;;;;19.52;1.73;;;;;;;21.37;61.11;99478.16;7318448;19;129424;-41
2023/03/21 02:12:38;;;;;;;49.58;3.05;;;;;;;21.33;61.64;99476.81;7314968;19;129668;-41
2023/03/21 02:15:06;;;;;;;38.75;2.35;;;;;;;21.37;60.94;99479.97;7315295;19;129727;-40
2023/03/21 02:17:52;;;;;;;55.50;3.38;;;;;;;21.39;61.86;99489.31;7314256;19;128991;-41
2023/03/21 02:20:39;;;;;;;55.58;3.15;;;;;;;21.39;61.13;99484.06;7316716;19;129105;-41
2023/03/21 02:23:32;;;;;;;49.20;2.83;;;;;;;21.39;60.94;99486.69;7315413;19;129503;-42
2023/03/21 02:26:19;;;;;;;26.38;2.08;;;;;;;21.39;61.67;99484.06;7314881;19;129268;-41
2023/03/21 02:28:55;;;;;;;54.03;3.22;;;;;;;21.37;60.99;99480.75;7316658;19;129265;-41
2023/03/21 02:31:33;;;;;;;37.15;2.17;;;;;;;21.38;61.07;99471.97;7316937;19;129008;-41
2023/03/21 02:34:24;;;;;;;37.42;2.55;;;;;;;21.38;61.59;99477.22;7316269;19;129682;-41
2023/03/21 02:36:57;;;;;;;36.80;2.53;;;;;;;21.40;61.36;99474.44;7314662;19;129166;-41
2023/03/21 02:39:31;;;;;;;29.70;2.00;;;;;;;21.40;61.07;99474.44;7317205;19;129099;-41
2023/03/21 02:42:15;;;;;;;52.85;3.28;;;;;;;21.38;60.69;99477.22;7315362;19;130059;-41
2023/03/21 02:44:52;;;;;;;41.00;2.42;;;;;;;21.39;60.92;99478.84;7315371;19;130282;-42
2023/03/21 02:47:44;;;;;;;25.95;1.83;;;;;;;21.38;60.86;99477.22;7313027;19;129690;-42
2023/03/21 02:50:15;;;;;;;18.30;1.50;;;;;;;21.38;60.82;99482.44;7315217;19;129100;-41
2023/03/21 02:52:45;;;;;;;52.88;3.40;;;;;;;21.34;61.27;99475.81;7315941;19;129365;-40
2023/03/21 02:55:17;;;;;;;47.53;2.92;;;;;;;21.36;61.27;99471.28;7314895;19;129286;-41
2023/03/21 02:57:45;;;;;;;40.88;2.55;;;;;;;21.37;60.44;99475.53;7315322;19;129191;-42
2023/03/21 03:00:16;;;;;;;26.92;1.92;;;;;;;21.38;61.38;99471.13;7315530;19;129204;-41
2023/03/21 03:02:42;;;;;;;38.53;2.45;;;;;;;21.36;61.00;99473.91;7315391;19;129027;-41
2023/03/21 03:05:17;;;;;;;43.88;2.60;;;;;;;21.38;61.47;99471.13;7316071;19;129635;-41
2023/03/21 03:07:52;;;;;;;54.83;3.10;;;;;;;21.37;61.20;99474.72;7315735;19;129488;-41
2023/03/21 03:10:47;;;;;;;29.45;2.08;;;;;;;21.37;60.99;99480.75;7315568;19;128977;-41
2023/03/21 03:13:32;;;;;;;52.75;3.08;;;;;;;21.38;60.85;99473.75;7314628;19;129107;-41
2023/03/21 03:16:06;;;;;;;45.25;2.50;;;;;;;21.36;60.93;99473.91;7312102;19;130188;-41
2023/03/21 03:18:48;;;;;;;30.65;2.10;;;;;;;21.32;61.40;99476.94;7315302;19;129182;-41
2023/03/21 03:21:24;;;;;;;30.70;1.92;;;;;;;21.24;61.47;99475.00;7315284;19;129332;-40
2023/03/21 03:24:12;;;;;;;63.30;3.75;;;;;;;21.19;61.55;99476.41;7313673;19;129252;-41
2023/03/21 03:26:57;;;;;;;41.55;2.63;;;;;;;21.18;61.53;99469.53;7313391;19;130781;-41
2023/03/21 03:29:25;;;;;;;28.52;1.92;;;;;;;21.08;61.69;99453.84;7315583;19;129825;-41
2023/03/21 03:32:15;;;;;;;43.90;2.70;;;;;;;21.20;61.50;99465.00;7313996;19;129147;-41
2023/03/21 03:34:48;;;;;;;27.45;2.05;;;;;;;21.15;61.06;99462.81;7313633;19;129184;-41
2023/03/21 03:37:25;;;;;;;42.28;2.55;;;;;;;21.15;61.44;99464.56;7312291;19;129062;-41
2023/03/21 03:40:04;;;;;;;48.33;2.83;;;;;;;21.12;61.52;99463.06;7314534;19;129929;-41
2023/03/21 03:42:45;;;;;;;43.58;2.60;;;;;;;21.13;61.44;99471.72;7314783;19;129266;-40
2023/03/21 03:45:11;;;;;;;36.20;2.35;;;;;;;21.06;59.66;99466.25;7313713;19;129236;-42
2023/03/21 03:47:52;;;;;;;28.17;1.83;;;;;;;21.07;61.69;99473.13;7315328;19;129258;-41
2023/03/21 03:50:32;;;;;;;29.73;2.03;;;;;;;21.05;62.12;99464.59;7314235;19;129852;-41
2023/03/21 03:53:24;;;;;;;46.20;2.90;;;;;;;21.03;62.24;99461.28;7313484;19;129909;-41
2023/03/21 03:55:52;;;;;;;39.95;2.60;;;;;;;21.05;61.71;99469.81;7311634;19;129386;-41
2023/03/21 03:58:19;;;;;;;6.15;0.90;;;;;;;21.04;61.55;99467.34;7313643;19;129678;-41
2023/03/21 04:00:46;;;;;;;54.88;3.22;;;;;;;21.00;60.58;99472.03;7313074;19;129240;-41
2023/03/21 04:03:11;;;;;;;23.52;1.90;;;;;;;20.99;61.93;99475.59;7314160;19;128857;-41
2023/03/21 04:05:37;;;;;;;40.57;2.43;;;;;;;20.98;60.38;99468.72;7312221;19;129444;-41
2023/03/21 04:08:02;;;;;;;14.65;1.23;;;;;;;20.97;61.41;99472.31;7313775;19;129598;-41
2023/03/21 04:10:28;;;;;;;40.97;2.60;;;;;;;20.98;61.05;99466.09;7314665;19;129250;-40
2023/03/21 04:12:53;;;;;;;35.78;2.30;;;;;;;21.00;60.90;99473.81;7312514;19;129201;-40
2023/03/21 04:15:19;;;;;;;46.47;2.80;;;;;;;20.96;60.82;99481.06;7312107;19;128699;-41
2023/03/21 04:17:45;;;;;;;35.97;2.27;;;;;;;20.96;61.29;99473.22;7312924;19;129616;-41
2023/03/21 04:20:10;;;;;;;42.72;2.67;;;;;;;20.94;60.67;99472.53;7314386;19;129578;-41
2023/03/21 04:22:36;;;;;;;31.60;1.92;;;;;;;20.87;61.05;99458.38;7312830;19;128861;-41
2023/03/21 04:25:04;;;;;;;35.03;2.30;;;;;;;20.96;61.33;99475.84;7310858;19;128941;-42
2023/03/21 04:27:30;;;;;;;47.33;2.83;;;;;;;20.87;60.54;99463.63;7310575;19;129194;-41
2023/03/21 04:29:55;;;;;;;52.80;3.13;;;;;;;20.94;61.25;99469.91;7311059;19;129491;-42
2023/03/21 04:32:24;;;;;;;35.38;2.30;;;;;;;20.95;62.22;99468.13;7313337;19;128796;-41
2023/03/21 04:34:52;;;;;;;37.95;2.38;;;;;;;20.91;60.22;99472.81;7311872;19;128960;-41
2023/03/21 04:37:20;;;;;;;34.38;2.20;;;;;;;20.94;60.34;99474.34;7310112;19;129296;-41
2023/03/21 04:39:46;;;;;;;94.05;5.28;;;;;;;20.86;60.27;99474.22;7311293;19;129156;-41
2023/03/21 04:42:15;;;;;;;37.45;2.38;;;;;;;21.02;59.72;99472.72;7313013;19;128951;-41
2023/03/21 04:44:40;;;;;;;54.05;3.13;;;;;;;21.36;58.29;99481.75;7309350;19;129792;-41
2023/03/21 04:47:07;;;;;;;44.50;2.63;;;;;;;21.69;56.56;99476.00;7309153;19;129671;-41
2023/03/21 04:49:32;;;;;;;48.40;2.70;;;;;;;21.92;56.57;99474.72;7311760;19;129338;-41
2023/03/21 04:51:58;;;;;;;42.83;2.58;;;;;;;22.14;55.51;99472.66;7312454;19;128996;-41
2023/03/21 04:54:24;;;;;;;97.43;5.88;;;;;;;22.24;55.40;99470.81;7309704;19;129309;-41
2023/03/21 04:56:51;;;;;;;37.80;2.43;;;;;;;22.38;54.64;99472.97;7309001;19;129611;-42
2023/03/21 04:59:17;;;;;;;50.20;2.92;;;;;;;22.49;54.70;99472.75;7311370;19;129814;-41
2023/03/21 05:01:43;;;;;;;35.40;2.15;;;;;;;22.55;54.25;99464.31;7311257;19;128902;-42
2023/03/21 05:04:10;;;;;;;38.58;2.38;;;;;;;22.63;54.31;99473.06;7309763;19;129619;-40
2023/03/21 05:06:35;;;;;;;46.25;2.55;;;;;;;22.79;53.79;99467.97;7307654;19;129639;-41
2023/03/21 05:09:04;;;;;;;49.40;2.67;;;;;;;22.86;53.69;99473.44;7310964;19;129118;-42
2023/03/21 05:11:30;;;;;;;51.35;2.78;;;;;;;22.86;52.91;99453.31;7309573;19;129012;-40
2023/03/21 05:13:56;;;;;;;54.67;3.03;;;;;;;23.05;53.05;99468.88;7305656;19;131360;-42
2023/03/21 05:16:25;;;;;;;44.92;2.58;;;;;;;22.95;52.84;99452.41;7306966;19;129628;-41
2023/03/21 05:18:54;;;;;;;55.47;2.95;;;;;;;23.06;52.85;99474.94;7311584;19;129639;-42
2023/03/21 05:21:20;;;;;;;37.53;2.38;;;;;;;22.99;53.48;99484.41;7312116;19;129279;-41
2023/03/21 05:23:52;;;;;;;59.38;3.28;;;;;;;23.04;52.98;99476.88;7308748;19;129010;-41
2023/03/21 05:26:19;;;;;;;33.83;2.22;;;;;;;23.11;52.82;99473.50;7305634;19;129244;-40
2023/03/21 05:28:46;;;;;;;106.03;5.22;;;;;;;23.06;52.69;99480.16;7306391;19;129711;-43
2023/03/21 05:31:16;;;;;;;47.80;2.95;;;;;;;23.09;53.31;99479.84;7307736;19;130352;-42
2023/03/21 05:33:45;;;;;;;35.42;2.05;;;;;;;23.12;52.87;99479.59;7311717;19;129435;-42
2023/03/21 05:36:12;;;;;;;40.42;2.67;;;;;;;23.05;53.18;99462.81;7305536;19;132115;-42
2023/03/21 05:38:41;;;;;;;53.08;2.90;;;;;;;23.08;53.01;99483.47;7314320;19;129210;-41
2023/03/21 05:41:07;;;;;;;71.00;4.05;;;;;;;22.97;53.42;99479.28;7311669;19;129279;-42
2023/03/21 05:43:32;;;;;;;33.08;1.98;;;;;;;22.89;53.75;99478.41;7315897;19;129184;-42
2023/03/21 05:45:58;;;;;;;86.80;4.83;;;;;;;22.81;53.66;99475.69;7313829;19;129833;-42
2023/03/21 05:48:23;;;;;;;52.00;3.13;;;;;;;22.67;53.30;99484.91;7316162;19;129149;-42
2023/03/21 05:50:48;;;;;;;76.13;4.40;;;;;;;22.47;54.14;99461.56;7317280;19;130106;-42
2023/03/21 05:53:14;;;;;;;19.63;1.30;;;;;;;22.46;54.25;99480.91;7314763;19;128874;-41
2023/03/21 05:55:39;;;;;;;40.50;2.72;;;;;;;22.34;54.94;99479.44;7315907;19;129218;-41
2023/03/21 05:58:04;;;;;;;61.20;3.53;;;;;;;22.11;55.03;99463.31;7314690;19;129683;-42
2023/03/21 06:00:30;;;;;;;51.92;3.25;;;;;;;22.08;55.59;99479.31;7314446;19;130407;-41
2023/03/21 06:02:55;;;;;;;40.53;2.43;;;;;;;21.98;55.52;99475.09;7315969;19;129561;-41
2023/03/21 06:05:21;;;;;;;34.30;2.22;;;;;;;21.79;55.84;99458.50;7312956;19;129287;-42
2023/03/21 06:07:47;;;;;;;42.40;2.40;;;;;;;21.80;56.00;99475.84;7313720;19;129408;-40
2023/03/21 06:10:12;;;;;;;57.33;3.53;;;;;;;21.79;56.60;99484.69;7313696;19;129955;-42
2023/03/21 06:12:38;;;;;;;33.85;2.33;;;;;;;21.73;56.86;99482.59;7311377;19;128774;-42
2023/03/21 06:15:07;;;;;;;44.55;2.67;;;;;;;21.71;56.43;99487.16;7312928;19;129613;-42
2023/03/21 06:17:33;;;;;;;85.75;4.75;;;;;;;21.65;56.60;99490.34;7311439;19;129765;-41
2023/03/21 06:19:59;;;;;;;57.70;3.15;;;;;;;21.68;56.87;99484.81;7312359;19;130226;-42
2023/03/21 06:22:25;;;;;;;84.53;5.10;;;;;;;21.70;56.95;99487.31;7311475;19;130172;-41
2023/03/21 06:24:51;;;;;;;86.50;5.00;;;;;;;21.63;56.43;99471.34;7309903;19;129293;-41
2023/03/21 06:27:16;;;;;;;56.30;3.20;;;;;;;21.72;56.16;99491.41;7313971;19;129084;-42
2023/03/21 06:29:41;;;;;;;118.55;6.63;;;;;;;21.69;56.57;99493.50;7314013;19;130111;-42
2023/03/21 06:32:07;;;;;;;27.47;2.07;;;;;;;21.63;56.67;99491.47;7315632;19;129911;-42
2023/03/21 06:34:32;;;;;;;48.47;2.92;;;;;;;21.57;56.97;99495.44;7314780;19;129531;-40
2023/03/21 06:36:58;;;;;;;59.25;3.45;;;;;;;21.55;57.25;99492.16;7312453;19;132752;-42
2023/03/21 06:39:23;;;;;;;42.33;2.90;;;;;;;21.59;57.12;99503.16;7314701;19;128933;-41
2023/03/21 06:41:48;;;;;;;30.85;1.92;;;;;;;21.71;56.71;99500.25;7313360;19;129657;-41
2023/03/21 06:44:14;;;;;;;51.45;3.17;;;;;;;21.81;56.20;99500.25;7313824;19;129308;-41
2023/03/21 06:46:39;;;;;;;56.72;3.25;;;;;;;21.98;56.16;99498.66;7311381;19;130909;-41
2023/03/21 06:49:05;;;;;;;4.70;0.77;;;;;;;22.14;55.11;99501.47;7314864;19;128906;-42
2023/03/21 06:51:30;;;;;;;59.95;3.75;;;;;;;22.27;54.78;99512.44;7314664;19;129943;-42
2023/03/21 06:53:56;;;;;;;27.53;2.00;;;;;;;22.44;54.97;99514.28;7314781;19;128812;-41
2023/03/21 06:56:21;;;;;;;35.87;2.33;;;;;;;22.53;54.20;99513.41;7311764;19;129244;-42
2023/03/21 06:58:46;;;;;;;32.83;2.00;;;;;;;22.72;54.09;99516.75;7316122;19;129514;-43
2023/03/21 07:01:13;;;;;;;46.83;2.88;;;;;;;22.77;53.50;99509.25;7312015;19;129075;-41
2023/03/21 07:03:39;;;;;;;95.28;5.38;;;;;;;22.83;53.65;99515.69;7312120;19;129913;-42
2023/03/21 07:06:12;;;;;;;35.40;2.27;;;;;;;22.82;53.47;99514.88;7312964;19;129220;-41
2023/03/21 07:08:40;;;;;;;47.25;3.08;;;;;;;22.73;53.72;99513.16;7314601;19;128798;-42
2023/03/21 07:11:06;;;;;;;48.67;2.95;;;;;;;22.74;53.77;99516.59;7313077;19;129853;-41
2023/03/21 07:13:32;;;;;;;49.58;2.72;;;;;;;22.52;54.08;99496.84;7315667;19;129401;-42
2023/03/21 07:15:58;;;;;;;40.88;2.47;;;;;;;22.43;54.15;99502.16;7314073;19;129204;-42
2023/03/21 07:18:23;;;;;;;29.10;2.05;;;;;;;22.44;54.71;99516.91;7315171;19;129471;-43
2023/03/21 07:20:50;;;;;;;68.77;4.07;;;;;;;22.25;54.96;99509.13;7313160;19;131320;-41
2023/03/21 07:23:17;;;;;;;61.00;3.55;;;;;;;22.21;54.92;99515.63;7314184;19;130368;-42
2023/03/21 07:25:42;;;;;;;48.40;2.85;;;;;;;22.13;54.95;99520.78;7314305;19;129145;-41
2023/03/21 07:28:08;;;;;;;25.42;2.00;;;;;;;22.00;55.85;99521.09;7313886;19;129456;-42
2023/03/21 07:30:33;;;;;;;44.85;3.00;;;;;;;21.92;55.87;99523.59;7314691;19;128767;-42
2023/03/21 07:32:59;;;;;;;46.78;2.72;;;;;;;21.82;55.97;99518.41;7314475;19;129075;-41
2023/03/21 07:35:24;;;;;;;34.65;2.20;;;;;;;21.81;56.76;99516.78;7314134;19;129177;-41
2023/03/21 07:37:50;;;;;;;56.78;3.67;;;;;;;21.81;56.64;99516.78;7310850;19;129433;-42
2023/03/21 07:40:15;;;;;;;29.63;1.97;;;;;;;21.88;55.97;99520.44;7313372;19;129199;-42
2023/03/21 07:42:41;;;;;;;55.33;3.50;;;;;;;21.97;55.84;99521.38;7314457;19;129410;-42
2023/03/21 07:45:09;;;;;;;64.53;3.87;;;;;;;22.13;55.86;99524.19;7311222;19;129060;-42
2023/03/21 07:47:35;;;;;;;34.08;2.22;;;;;;;22.23;55.14;99522.38;7311361;19;129753;-42
2023/03/21 07:50:03;;;;;;;25.77;1.73;;;;;;;22.42;54.38;99530.13;7314664;19;130064;-42
2023/03/21 07:52:29;;;;;;;92.65;5.15;;;;;;;22.54;54.36;99526.38;7313529;19;129108;-42
2023/03/21 07:54:54;;;;;;;24.35;1.98;;;;;;;22.69;53.71;99524.09;7314259;19;129637;-42
2023/03/21 07:57:20;;;;;;;53.83;3.13;;;;;;;22.85;53.77;99527.69;7311115;19;130161;-42
2023/03/21 07:59:45;;;;;;;30.42;1.73;;;;;;;22.90;52.91;99525.44;7312569;19;129242;-42
2023/03/21 08:02:14;;;;;;;47.88;3.05;;;;;;;22.90;53.23;99527.22;7314100;19;129373;-42
2023/03/21 08:04:39;;;;;;;31.95;2.22;;;;;;;22.83;53.30;99516.53;7311050;19;129192;-42
2023/03/21 08:07:05;;;;;;;44.28;2.60;;;;;;;22.79;53.77;99512.53;7310397;19;130314;-42
2023/03/21 08:09:30;;;;;;;35.47;2.20;;;;;;;22.73;53.62;99512.31;7313208;19;128963;-42
2023/03/21 08:11:55;;;;;;;55.90;3.40;;;;;;;22.62;53.90;99517.78;7312250;19;129484;-42
2023/03/21 08:14:21;;;;;;;69.72;4.32;;;;;;;22.51;54.44;99520.59;7314495;19;129469;-42
2023/03/21 08:16:46;;;;;;;27.13;1.88;;;;;;;22.43;54.60;99517.88;7310114;19;129692;-42
2023/03/21 08:19:11;;;;;;;38.83;2.23;;;;;;;22.21;54.62;99500.75;7312778;19;128788;-42
2023/03/21 08:21:38;;;;;;;56.75;3.40;;;;;;;22.20;55.34;99516.59;7312970;19;129051;-41
2023/03/21 08:24:04;;;;;;;40.92;2.47;;;;;;;22.15;55.09;99519.66;7312139;19;130340;-41
2023/03/21 08:26:31;;;;;;;22.35;1.75;;;;;;;22.15;55.17;99524.09;7311262;19;128861;-41
2023/03/21 08:28:56;;;;;;;54.42;3.13;;;;;;;22.09;55.20;99506.31;7313026;19;129107;-42
2023/03/21 08:31:22;;;;;;;42.90;2.57;;;;;;;22.18;55.65;99513.31;7312996;19;129444;-42
2023/03/21 08:33:52;;;;;;;33.00;2.13;;;;;;;22.18;55.20;99497.59;7312774;19;129203;-42
2023/03/21 08:36:17;;;;;;;39.08;2.47;;;;;;;22.42;54.54;99521.44;7309294;19;131394;-42
2023/03/21 08:38:44;;;;;;;45.10;2.72;;;;;;;22.51;54.17;99525.81;7309765;19;130523;-42
2023/03/21 08:41:10;;;;;;;50.20;2.92;;;;;;;22.61;54.59;99516.13;7312746;19;129039;-41
2023/03/21 08:43:36;;;;;;;25.80;1.80;;;;;;;22.73;54.36;99520.16;7312403;19;129937;-43
2023/03/21 08:46:03;;;;;;;50.30;2.97;;;;;;;22.76;53.77;99501.53;7309560;19;128949;-41
2023/03/21 08:48:28;;;;;;;;;;;;;;;22.93;53.50;99527.75;7312670;19;129479;-42
2023/03/21 08:50:53;;;;;;;33.50;2.23;;;;;;;23.00;53.00;99514.88;7311976;19;129007;-41
2023/03/21 08:53:18;;;;;;;29.55;1.90;;;;;;;23.09;53.11;99508.72;7312427;19;129188;-42
2023/03/21 08:55:44;;;;;;;37.67;2.27;;;;;;;23.13;52.41;99504.81;7310595;19;129480;-42
2023/03/21 08:58:10;;;;;;;78.90;4.53;;;;;;;23.10;52.76;99510.38;7310348;19;129352;-40
2023/03/21 09:00:35;;;;;;;11.83;1.23;;;;;;;23.05;53.13;99513.47;7312428;19;129970;-42
2023/03/21 09:03:00;;;;;;;29.97;2.10;;;;;;;22.91;53.19;99497.41;7311919;19;129890;-41
2023/03/21 09:05:27;;;;;;;60.28;3.88;;;;;;;22.93;53.57;99511.19;7307868;19;130055;-42
2023/03/21 09:07:52;;;;;;;76.25;4.38;;;;;;;22.84;53.36;99510.28;7310100;19;129144;-41
2023/03/21 09:10:21;;;;;;;43.72;2.72;;;;;;;22.73;53.63;99510.53;7312835;19;131165;-42
2023/03/21 09:12:46;;;;;;;37.40;2.40;;;;;;;;;;7317320;19;130248;-41
2023/03/21 09:15:13;;;;;;;35.03;2.25;;;;;;;22.52;54.21;99516.97;7318553;19;129661;-41
2023/03/21 09:17:42;;;;;;;35.10;2.28;;;;;;;22.40;54.66;99492.78;7317937;19;128894;-41
2023/03/21 09:20:20;;;;;;;30.73;2.30;;;;;;;22.35;54.38;99509.91;7318582;19;129711;-41
2023/03/21 09:22:47;;;;;;;37.10;2.22;;;;;;;22.23;55.49;99505.84;7318624;19;130078;-42
2023/03/21 09:25:15;;;;;;;33.92;2.10;;;;;;;22.14;55.58;99517.19;7315800;19;129061;-41
2023/03/21 09:27:41;;;;;;;33.78;2.17;;;;;;;22.06;55.60;99509.22;7317524;19;129137;-42
2023/03/21 09:30:08;;;;;;;;;;;;;;;21.97;55.84;99510.91;7318603;19;129282;-41
2023/03/21 09:32:34;;;;;;;43.65;2.55;;;;;;;21.98;56.38;99511.75;7318871;19;129508;-42
2023/03/21 09:34:59;;;;;;;31.80;2.08;;;;;;;22.04;56.29;99512.00;7318315;19;128978;-42
2023/03/21 09:37:25;;;;;;;51.97;2.97;;;;;;;22.12;56.06;99508.63;7315299;19;129395;-41
2023/03/21 09:39:51;;;;;;;33.22;2.05;;;;;;;22.23;55.09;99511.09;7317167;19;129369;-42
2023/03/21 09:42:45;;;;;;;37.05;2.22;;;;;;;22.36;55.26;99508.94;7316691;19;130077;-42
2023/03/21 09:45:27;;;;;;;36.70;2.25;;;;;;;22.52;54.58;99511.75;7314889;19;129156;-42
2023/03/21 09:47:55;;;;;;;37.35;2.30;;;;;;;22.47;54.64;99499.09;7316928;19;129222;-42
2023/03/21 09:50:30;;;;;;;24.90;1.98;;;;;;;22.75;54.20;99505.13;7316112;19;128979;-42
2023/03/21 09:53:07;;;;;;;63.45;3.50;;;;;;;22.87;53.24;99506.56;7314455;19;129628;-41
2023/03/21 09:55:35;;;;;;;;;;;;;;;22.95;53.18;99504.00;7314848;19;129127;-41
2023/03/21 09:58:27;;;;;;;36.73;2.37;;;;;;;22.94;52.97;99479.59;7317477;19;129328;-41
2023/03/21 10:00:59;;;;;;;50.70;2.80;;;;;;;23.13;52.67;99492.53;7316366;19;129128;-42
2023/03/21 10:03:33;;;;;;;41.33;2.55;;;;;;;23.10;52.82;99471.88;7317164;19;129228;-41
2023/03/21 10:06:02;;;;;;;46.13;2.70;;;;;;;23.15;52.71;99484.50;7315131;19;131584;-41
2023/03/21 10:08:33;;;;;;;40.00;2.47;;;;;;;23.10;52.41;99484.16;7316565;19;129599;-41
2023/03/21 10:11:08;;;;;;;50.03;2.95;;;;;;;23.01;52.68;99492.91;7313876;19;129274;-41
2023/03/21 10:13:41;;;;;;;76.88;4.28;;;;;;;22.90;53.68;99480.88;7314938;19;129491;-40
2023/03/21 10:16:15;;;;;;;43.80;2.60;;;;;;;22.81;53.46;99494.03;7314529;19;128875;-42
2023/03/21 10:18:42;;;;;;;38.08;2.40;;;;;;;22.69;54.04;99474.28;7316298;19;129225;-41
2023/03/21 10:21:15;;;;;;;31.63;1.92;;;;;;;22.60;54.35;99472.53;7316946;19;129107;-42
2023/03/21 10:23:40;;;;;;;37.50;2.17;;;;;;;22.54;54.33;99470.53;7312930;19;129672;-40
2023/03/21 10:26:06;;;;;;;35.47;2.07;;;;;;;22.34;54.63;99458.50;7314083;19;128877;-42
2023/03/21 10:28:36;;;;;;;46.67;2.70;;;;;;;22.32;54.77;99471.75;7315603;19;128868;-42
2023/03/21 10:31:06;;;;;;;30.85;1.92;;;;;;;22.22;55.13;99462.28;7315536;19;130005;-42
2023/03/21 10:33:38;;;;;;;21.45;1.48;;;;;;;22.14;55.34;99462.19;7315715;19;129183;-42
2023/03/21 10:36:16;;;;;;;23.25;1.67;;;;;;;22.04;55.88;99464.03;7314115;19;128848;-41
2023/03/21 10:38:46;;;;;;;71.90;3.78;;;;;;;21.97;55.66;99458.56;7316233;19;129781;-42
2023/03/21 10:41:12;;;;;;;59.53;3.50;;;;;;;21.91;56.17;99459.16;7314204;19;129497;-39
2023/03/21 10:43:39;;;;;;;27.58;1.85;;;;;;;21.90;55.96;99458.31;7314895;19;129724;-42
2023/03/21 10:46:12;;;;;;;35.35;2.10;;;;;;;21.92;55.90;99461.63;7312883;19;129166;-40
2023/03/21 10:48:44;;;;;;;89.00;4.70;;;;;;;22.01;56.30;99461.72;7309020;19;129466;-40
2023/03/21 10:51:16;;;;;;;52.58;2.78;;;;;;;22.13;55.30;99452.72;7316155;19;129351;-41
2023/03/21 10:53:50;;;;;;;49.95;3.08;;;;;;;22.26;54.96;99455.78;7315962;19;129576;-42
2023/03/21 10:56:15;;;;;;;28.33;1.88;;;;;;;22.38;55.20;99462.47;7314001;19;128929;-41
2023/03/21 10:58:45;;;;;;;22.05;1.73;;;;;;;22.48;54.89;99452.72;7314455;19;129109;-42
2023/03/21 11:01:24;;;;;;;37.45;2.20;;;;;;;22.65;54.60;99449.34;7315841;19;129018;-41
2023/03/21 11:03:56;;;;;;;60.97;3.35;;;;;;;22.82;54.17;99451.97;7314284;19;129638;-42
2023/03/21 11:06:35;;;;;;;54.83;3.05;;;;;;;22.93;53.60;99453.50;7314823;19;131195;-41
2023/03/21 11:09:00;;;;;;;35.22;2.05;;;;;;;23.02;53.02;99447.38;7315138;19;129347;-42
2023/03/21 11:11:31;;;;;;;30.60;1.93;;;;;;;23.08;53.23;99449.38;7314095;19;129723;-40
2023/03/21 11:14:05;;;;;;;35.15;2.17;;;;;;;23.10;52.64;99450.06;7314639;19;129267;-42
2023/03/21 11:16:40;;;;;;;49.67;2.85;;;;;;;23.07;52.93;99451.16;7313373;19;129062;-42
2023/03/21 11:19:17;;;;;;;48.75;2.72;;;;;;;23.07;53.01;99448.53;7314548;19;129149;-41
2023/03/21 11:21:43;;;;;;;45.90;2.60;;;;;;;22.96;52.78;99443.56;7315117;19;130369;-41
2023/03/21 11:24:15;;;;;;;17.23;1.37;;;;;;;22.90;53.42;99438.94;7314755;19;129245;-41
2023/03/21 11:26:43;;;;;;;17.42;1.33;;;;;;;22.83;54.04;99437.03;7313031;19;129685;-41
2023/03/21 11:29:18;;;;;;;24.00;1.73;;;;;;;22.66;53.97;99433.47;7313878;19;129833;-41
2023/03/21 11:31:44;;;;;;;61.25;3.30;;;;;;;22.56;54.30;99424.06;7315020;19;129181;-42